sensor_id;sensor_type;location;lat;lon;timestamp;pressure;altitude;pressure_sealevel;temperature;humidity
61119;BME280;51448;51.660;5.824;2024-03-02T00:00:50;99767.41;;;8.71;75.76
61119;BME280;51448;51.660;5.824;2024-03-02T00:03:19;99776.81;;;8.70;75.54
61119;BME280;51448;51.660;5.824;2024-03-02T00:05:50;99773.56;;;8.68;75.36
61119;BME280;51448;51.660;5.824;2024-03-02T00:08:24;99774.38;;;8.68;75.82
61119;BME280;51448;51.660;5.824;2024-03-02T00:11:00;99787.47;;;8.72;75.67
61119;BME280;51448;51.660;5.824;2024-03-02T00:13:30;99784.56;;;8.68;75.91
61119;BME280;51448;51.660;5.824;2024-03-02T00:15:59;99782.97;;;8.67;76.06
61119;BME280;51448;51.660;5.824;2024-03-02T00:18:31;99792.03;;;8.67;76.19
61119;BME280;51448;51.660;5.824;2024-03-02T00:21:01;99788.47;;;8.67;76.53
61119;BME280;51448;51.660;5.824;2024-03-02T00:23:31;99783.31;;;8.65;76.61
61119;BME280;51448;51.660;5.824;2024-03-02T00:25:59;99782.63;;;8.68;75.90
61119;BME280;51448;51.660;5.824;2024-03-02T00:28:30;99788.13;;;8.68;76.16
61119;BME280;51448;51.660;5.824;2024-03-02T00:31:06;99793.63;;;8.68;76.65
61119;BME280;51448;51.660;5.824;2024-03-02T00:33:37;99791.69;;;8.69;76.74
61119;BME280;51448;51.660;5.824;2024-03-02T00:36:09;99789.44;;;8.71;76.65
61119;BME280;51448;51.660;5.824;2024-03-02T00:38:44;99784.72;;;8.72;76.86
61119;BME280;51448;51.660;5.824;2024-03-02T00:41:21;99788.28;;;8.72;76.95
61119;BME280;51448;51.660;5.824;2024-03-02T00:44:01;99793.44;;;8.74;76.68
61119;BME280;51448;51.660;5.824;2024-03-02T00:46:40;99790.69;;;8.74;76.76
61119;BME280;51448;51.660;5.824;2024-03-02T00:51:48;99804.09;;;8.75;77.01
61119;BME280;51448;51.660;5.824;2024-03-02T00:54:21;99826.75;;;8.81;77.14
61119;BME280;51448;51.660;5.824;2024-03-02T00:56:52;99839.81;;;8.84;77.14
61119;BME280;51448;51.660;5.824;2024-03-02T00:59:23;99873.81;;;8.88;77.26
61119;BME280;51448;51.660;5.824;2024-03-02T01:01:51;99886.06;;;8.90;77.23
61119;BME280;51448;51.660;5.824;2024-03-02T01:04:19;99891.72;;;8.94;78.14
61119;BME280;51448;51.660;5.824;2024-03-02T01:06:47;99886.06;;;8.90;78.97
61119;BME280;51448;51.660;5.824;2024-03-02T01:09:15;99885.59;;;8.88;79.50
61119;BME280;51448;51.660;5.824;2024-03-02T01:11:45;99892.56;;;8.86;79.94
61119;BME280;51448;51.660;5.824;2024-03-02T01:14:13;99895.31;;;8.86;80.49
61119;BME280;51448;51.660;5.824;2024-03-02T01:16:40;99892.91;;;8.84;80.74
61119;BME280;51448;51.660;5.824;2024-03-02T01:19:08;99894.69;;;8.80;80.65
61119;BME280;51448;51.660;5.824;2024-03-02T01:21:37;99895.84;;;8.79;81.37
61119;BME280;51448;51.660;5.824;2024-03-02T01:24:04;99892.28;;;8.79;81.25
61119;BME280;51448;51.660;5.824;2024-03-02T01:26:32;99901.22;;;8.76;81.47
61119;BME280;51448;51.660;5.824;2024-03-02T01:29:00;99898.75;;;8.74;81.42
61119;BME280;51448;51.660;5.824;2024-03-02T01:31:27;99892.00;;;8.72;81.68
61119;BME280;51448;51.660;5.824;2024-03-02T01:33:55;99879.69;;;8.69;81.48
61119;BME280;51448;51.660;5.824;2024-03-02T01:36:23;99887.94;;;8.69;81.82
61119;BME280;51448;51.660;5.824;2024-03-02T01:38:51;99889.09;;;8.68;81.55
61119;BME280;51448;51.660;5.824;2024-03-02T01:41:18;99885.88;;;8.66;81.42
61119;BME280;51448;51.660;5.824;2024-03-02T01:43:46;99890.06;;;8.63;81.42
61119;BME280;51448;51.660;5.824;2024-03-02T01:46:14;99884.91;;;8.62;81.41
61119;BME280;51448;51.660;5.824;2024-03-02T01:48:41;99875.69;;;8.58;81.46
61119;BME280;51448;51.660;5.824;2024-03-02T01:51:09;99883.47;;;8.56;81.45
61119;BME280;51448;51.660;5.824;2024-03-02T01:53:37;99877.63;;;8.57;81.27
61119;BME280;51448;51.660;5.824;2024-03-02T01:56:05;99883.47;;;8.56;80.97
61119;BME280;51448;51.660;5.824;2024-03-02T01:58:32;99879.13;;;8.55;80.77
61119;BME280;51448;51.660;5.824;2024-03-02T02:01:00;99879.44;;;8.53;80.77
61119;BME280;51448;51.660;5.824;2024-03-02T02:03:28;99883.00;;;8.54;80.74
61119;BME280;51448;51.660;5.824;2024-03-02T02:05:56;99877.81;;;8.52;80.30
61119;BME280;51448;51.660;5.824;2024-03-02T02:08:23;99877.34;;;8.50;80.62
61119;BME280;51448;51.660;5.824;2024-03-02T02:10:51;99875.75;;;8.49;80.85
61119;BME280;51448;51.660;5.824;2024-03-02T02:13:18;99864.25;;;8.47;80.69
61119;BME280;51448;51.660;5.824;2024-03-02T02:15:46;99866.19;;;8.47;81.26
61119;BME280;51448;51.660;5.824;2024-03-02T02:18:14;99866.06;;;8.43;81.24
61119;BME280;51448;51.660;5.824;2024-03-02T02:20:41;99868.81;;;8.43;81.32
61119;BME280;51448;51.660;5.824;2024-03-02T02:23:09;99860.88;;;8.41;81.44
61119;BME280;51448;51.660;5.824;2024-03-02T02:25:37;99869.78;;;8.38;81.73
61119;BME280;51448;51.660;5.824;2024-03-02T02:28:05;99883.03;;;8.36;81.91
61119;BME280;51448;51.660;5.824;2024-03-02T02:30:33;99876.75;;;8.36;81.68
61119;BME280;51448;51.660;5.824;2024-03-02T02:33:01;99877.38;;;8.33;81.97
61119;BME280;51448;51.660;5.824;2024-03-02T02:35:29;99874.94;;;8.31;82.02
61119;BME280;51448;51.660;5.824;2024-03-02T02:37:58;99881.56;;;8.30;82.28
61119;BME280;51448;51.660;5.824;2024-03-02T02:40:28;99879.31;;;8.32;82.48
61119;BME280;51448;51.660;5.824;2024-03-02T02:42:58;99872.06;;;8.28;82.82
61119;BME280;51448;51.660;5.824;2024-03-02T02:45:26;99876.88;;;8.31;82.86
61119;BME280;51448;51.660;5.824;2024-03-02T02:47:54;99872.88;;;8.28;82.52
61119;BME280;51448;51.660;5.824;2024-03-02T02:50:22;99871.91;;;8.24;83.00
61119;BME280;51448;51.660;5.824;2024-03-02T02:52:49;99869.81;;;8.21;83.52
61119;BME280;51448;51.660;5.824;2024-03-02T02:55:17;99866.44;;;8.15;83.86
61119;BME280;51448;51.660;5.824;2024-03-02T02:57:45;99876.13;;;8.13;84.18
61119;BME280;51448;51.660;5.824;2024-03-02T03:00:15;99855.91;;;8.09;84.85
61119;BME280;51448;51.660;5.824;2024-03-02T03:02:47;99856.59;;;8.06;85.07
61119;BME280;51448;51.660;5.824;2024-03-02T03:05:18;99856.91;;;8.04;85.13
61119;BME280;51448;51.660;5.824;2024-03-02T03:07:47;99861.13;;;8.02;85.51
61119;BME280;51448;51.660;5.824;2024-03-02T03:10:17;99866.63;;;8.02;85.70
61119;BME280;51448;51.660;5.824;2024-03-02T03:12:45;99883.09;;;8.02;85.92
61119;BME280;51448;51.660;5.824;2024-03-02T03:15:14;99888.13;;;8.00;86.07
61119;BME280;51448;51.660;5.824;2024-03-02T03:17:44;99873.06;;;7.97;86.10
61119;BME280;51448;51.660;5.824;2024-03-02T03:20:13;99890.69;;;7.96;86.29
61119;BME280;51448;51.660;5.824;2024-03-02T03:22:42;99880.84;;;7.95;86.22
61119;BME280;51448;51.660;5.824;2024-03-02T03:25:10;99887.47;;;7.94;86.31
61119;BME280;51448;51.660;5.824;2024-03-02T03:27:37;99896.84;;;7.93;86.58
61119;BME280;51448;51.660;5.824;2024-03-02T03:30:05;99896.03;;;7.93;86.77
61119;BME280;51448;51.660;5.824;2024-03-02T03:32:34;99901.53;;;7.93;87.04
61119;BME280;51448;51.660;5.824;2024-03-02T03:35:03;99899.91;;;7.91;86.79
61119;BME280;51448;51.660;5.824;2024-03-02T03:37:31;99902.19;;;7.89;86.89
61119;BME280;51448;51.660;5.824;2024-03-02T03:40:02;99903.31;;;7.88;86.93
61119;BME280;51448;51.660;5.824;2024-03-02T03:42:34;99910.59;;;7.84;87.14
61119;BME280;51448;51.660;5.824;2024-03-02T03:45:02;99902.69;;;7.83;87.16
61119;BME280;51448;51.660;5.824;2024-03-02T03:47:31;99890.06;;;7.82;87.43
61119;BME280;51448;51.660;5.824;2024-03-02T03:49:59;99896.22;;;7.79;87.30
61119;BME280;51448;51.660;5.824;2024-03-02T03:52:26;99899.25;;;7.77;87.75
61119;BME280;51448;51.660;5.824;2024-03-02T03:54:54;99918.19;;;7.79;87.58
61119;BME280;51448;51.660;5.824;2024-03-02T03:57:22;99935.78;;;7.78;88.23
61119;BME280;51448;51.660;5.824;2024-03-02T03:59:49;99929.00;;;7.75;88.16
61119;BME280;51448;51.660;5.824;2024-03-02T04:02:17;99933.34;;;7.76;88.28
61119;BME280;51448;51.660;5.824;2024-03-02T04:04:44;99910.56;;;7.76;88.18
61119;BME280;51448;51.660;5.824;2024-03-02T04:07:12;99900.41;;;7.76;88.47
61119;BME280;51448;51.660;5.824;2024-03-02T04:09:40;99897.97;;;7.75;88.47
61119;BME280;51448;51.660;5.824;2024-03-02T04:12:07;99907.69;;;7.72;88.74
61119;BME280;51448;51.660;5.824;2024-03-02T04:14:35;99901.34;;;7.72;88.62
61119;BME280;51448;51.660;5.824;2024-03-02T04:17:02;99902.03;;;7.69;88.88
61119;BME280;51448;51.660;5.824;2024-03-02T04:19:30;99896.88;;;7.67;88.96
61119;BME280;51448;51.660;5.824;2024-03-02T04:21:57;99904.44;;;7.70;88.73
61119;BME280;51448;51.660;5.824;2024-03-02T04:24:31;99910.25;;;7.69;88.52
61119;BME280;51448;51.660;5.824;2024-03-02T04:26:59;99909.78;;;7.67;88.66
61119;BME280;51448;51.660;5.824;2024-03-02T04:29:26;99908.94;;;7.66;88.39
61119;BME280;51448;51.660;5.824;2024-03-02T04:31:54;99903.47;;;7.66;88.04
61119;BME280;51448;51.660;5.824;2024-03-02T04:34:22;99908.94;;;7.66;87.89
61119;BME280;51448;51.660;5.824;2024-03-02T04:36:49;99919.13;;;7.65;88.16
61119;BME280;51448;51.660;5.824;2024-03-02T04:39:17;99912.84;;;7.65;87.58
61119;BME280;51448;51.660;5.824;2024-03-02T04:41:45;99914.31;;;7.62;87.40
61119;BME280;51448;51.660;5.824;2024-03-02T04:44:12;99913.78;;;7.60;87.42
61119;BME280;51448;51.660;5.824;2024-03-02T04:46:40;99913.66;;;7.57;87.62
61119;BME280;51448;51.660;5.824;2024-03-02T04:49:07;99924.47;;;7.53;87.33
61119;BME280;51448;51.660;5.824;2024-03-02T04:51:35;99911.38;;;7.50;87.47
61119;BME280;51448;51.660;5.824;2024-03-02T04:54:03;99910.56;;;7.50;87.45
61119;BME280;51448;51.660;5.824;2024-03-02T04:56:30;99928.00;;;7.45;87.17
61119;BME280;51448;51.660;5.824;2024-03-02T04:59:17;99930.59;;;7.42;87.31
61119;BME280;51448;51.660;5.824;2024-03-02T05:01:46;99931.72;;;7.41;87.39
61119;BME280;51448;51.660;5.824;2024-03-02T05:04:14;99933.16;;;7.38;87.46
61119;BME280;51448;51.660;5.824;2024-03-02T05:06:42;99933.47;;;7.36;87.65
61119;BME280;51448;51.660;5.824;2024-03-02T05:09:10;99931.88;;;7.35;87.63
61119;BME280;51448;51.660;5.824;2024-03-02T05:11:37;99941.22;;;7.34;87.72
61119;BME280;51448;51.660;5.824;2024-03-02T05:14:05;99940.09;;;7.35;87.84
61119;BME280;51448;51.660;5.824;2024-03-02T05:16:37;99938.47;;;7.34;87.58
61119;BME280;51448;51.660;5.824;2024-03-02T05:19:08;99941.22;;;7.34;87.72
61119;BME280;51448;51.660;5.824;2024-03-02T05:21:36;99944.28;;;7.33;87.69
61119;BME280;51448;51.660;5.824;2024-03-02T05:24:03;99942.66;;;7.32;88.05
61119;BME280;51448;51.660;5.824;2024-03-02T05:26:31;99941.84;;;7.31;87.89
61119;BME280;51448;51.660;5.824;2024-03-02T05:28:58;99944.94;;;7.30;88.23
61119;BME280;51448;51.660;5.824;2024-03-02T05:31:26;99945.72;;;7.30;88.16
61119;BME280;51448;51.660;5.824;2024-03-02T05:33:54;99961.41;;;7.30;87.93
61119;BME280;51448;51.660;5.824;2024-03-02T05:36:24;99959.13;;;7.32;87.97
61119;BME280;51448;51.660;5.824;2024-03-02T05:38:52;99955.91;;;7.30;87.84
61119;BME280;51448;51.660;5.824;2024-03-02T05:41:20;99956.72;;;7.30;87.81
61119;BME280;51448;51.660;5.824;2024-03-02T05:43:48;99958.66;;;7.30;87.91
61119;BME280;51448;51.660;5.824;2024-03-02T05:46:15;99953.97;;;7.30;87.97
61119;BME280;51448;51.660;5.824;2024-03-02T05:48:43;99957.03;;;7.29;87.66
61119;BME280;51448;51.660;5.824;2024-03-02T05:51:10;99958.94;;;7.28;87.61
61119;BME280;51448;51.660;5.824;2024-03-02T05:53:38;99958.94;;;7.28;87.58
61119;BME280;51448;51.660;5.824;2024-03-02T05:56:06;99953.78;;;7.27;87.48
61119;BME280;51448;51.660;5.824;2024-03-02T05:58:34;99958.78;;;7.25;87.39
61119;BME280;51448;51.660;5.824;2024-03-02T06:01:13;99955.53;;;7.23;87.31
61119;BME280;51448;51.660;5.824;2024-03-02T06:03:41;99961.34;;;7.21;87.44
61119;BME280;51448;51.660;5.824;2024-03-02T06:06:09;99962.00;;;7.18;87.58
61119;BME280;51448;51.660;5.824;2024-03-02T06:08:36;99973.59;;;7.15;87.51
61119;BME280;51448;51.660;5.824;2024-03-02T06:11:04;99969.25;;;7.14;87.48
61119;BME280;51448;51.660;5.824;2024-03-02T06:13:31;99969.06;;;7.10;87.60
61119;BME280;51448;51.660;5.824;2024-03-02T06:15:59;99973.56;;;7.06;87.86
61119;BME280;51448;51.660;5.824;2024-03-02T06:18:27;99971.47;;;7.03;87.78
61119;BME280;51448;51.660;5.824;2024-03-02T06:20:55;99980.31;;;7.00;88.03
61119;BME280;51448;51.660;5.824;2024-03-02T06:23:22;99986.75;;;6.96;88.35
61119;BME280;51448;51.660;5.824;2024-03-02T06:25:50;99980.78;;;6.94;88.53
61119;BME280;51448;51.660;5.824;2024-03-02T06:28:17;99990.13;;;6.93;88.57
61119;BME280;51448;51.660;5.824;2024-03-02T06:30:45;99992.88;;;6.93;88.54
61119;BME280;51448;51.660;5.824;2024-03-02T06:33:12;99994.00;;;6.92;88.53
61119;BME280;51448;51.660;5.824;2024-03-02T06:35:40;99996.25;;;6.90;88.63
61119;BME280;51448;51.660;5.824;2024-03-02T06:38:08;99996.25;;;6.90;88.49
61119;BME280;51448;51.660;5.824;2024-03-02T06:40:35;100004.78;;;6.88;88.57
61119;BME280;51448;51.660;5.824;2024-03-02T06:43:05;100004.78;;;6.88;88.24
61119;BME280;51448;51.660;5.824;2024-03-02T06:45:33;100010.28;;;6.88;88.15
61119;BME280;51448;51.660;5.824;2024-03-02T06:48:01;100000.63;;;6.91;87.87
61119;BME280;51448;51.660;5.824;2024-03-02T06:50:29;100007.22;;;6.90;88.24
61119;BME280;51448;51.660;5.824;2024-03-02T06:52:57;100010.28;;;6.88;88.24
61119;BME280;51448;51.660;5.824;2024-03-02T06:55:25;100014.97;;;6.88;88.47
61119;BME280;51448;51.660;5.824;2024-03-02T06:57:52;100004.31;;;6.86;88.51
61119;BME280;51448;51.660;5.824;2024-03-02T07:00:20;100010.09;;;6.84;88.58
61119;BME280;51448;51.660;5.824;2024-03-02T07:02:48;100005.13;;;6.87;88.86
61119;BME280;51448;51.660;5.824;2024-03-02T07:05:16;100015.44;;;6.90;89.04
61119;BME280;51448;51.660;5.824;2024-03-02T07:07:43;100011.28;;;6.92;89.08
61119;BME280;51448;51.660;5.824;2024-03-02T07:10:11;100014.50;;;6.94;89.30
61119;BME280;51448;51.660;5.824;2024-03-02T07:12:38;100021.31;;;6.97;89.47
61119;BME280;51448;51.660;5.824;2024-03-02T07:15:06;100027.47;;;7.02;89.18
61119;BME280;51448;51.660;5.824;2024-03-02T07:17:34;100024.41;;;7.04;89.30
61119;BME280;51448;51.660;5.824;2024-03-02T07:20:04;100028.13;;;7.08;89.20
61119;BME280;51448;51.660;5.824;2024-03-02T07:22:33;100034.09;;;7.10;89.25
61119;BME280;51448;51.660;5.824;2024-03-02T07:25:01;100042.81;;;7.12;89.26
61119;BME280;51448;51.660;5.824;2024-03-02T07:27:30;100037.84;;;7.14;89.44
61119;BME280;51448;51.660;5.824;2024-03-02T07:29:58;100036.09;;;7.18;89.11
61119;BME280;51448;51.660;5.824;2024-03-02T07:32:26;100043.19;;;7.19;89.10
61119;BME280;51448;51.660;5.824;2024-03-02T07:34:53;100035.44;;;7.21;89.21
61119;BME280;51448;51.660;5.824;2024-03-02T07:37:22;100041.91;;;7.25;89.25
61119;BME280;51448;51.660;5.824;2024-03-02T07:39:51;100039.38;;;7.29;89.10
61119;BME280;51448;51.660;5.824;2024-03-02T07:42:19;100033.75;;;7.34;89.51
61119;BME280;51448;51.660;5.824;2024-03-02T07:44:46;100040.84;;;7.44;89.16
61119;BME280;51448;51.660;5.824;2024-03-02T07:47:14;100036.84;;;7.50;88.84
61119;BME280;51448;51.660;5.824;2024-03-02T07:49:41;100045.59;;;7.60;88.53
61119;BME280;51448;51.660;5.824;2024-03-02T07:52:09;100032.22;;;7.68;88.27
61119;BME280;51448;51.660;5.824;2024-03-02T07:54:37;100035.47;;;7.78;88.04
61119;BME280;51448;51.660;5.824;2024-03-02T07:57:04;100037.59;;;7.90;87.40
61119;BME280;51448;51.660;5.824;2024-03-02T07:59:32;100038.09;;;8.01;86.85
61119;BME280;51448;51.660;5.824;2024-03-02T08:01:59;100038.06;;;8.09;86.45
61119;BME280;51448;51.660;5.824;2024-03-02T08:04:28;100036.97;;;8.19;86.14
61119;BME280;51448;51.660;5.824;2024-03-02T08:06:55;100048.44;;;8.30;85.08
61119;BME280;51448;51.660;5.824;2024-03-02T08:09:23;100037.78;;;8.37;84.60
61119;BME280;51448;51.660;5.824;2024-03-02T08:11:51;100042.81;;;8.43;84.07
61119;BME280;51448;51.660;5.824;2024-03-02T08:14:18;100042.66;;;8.49;83.66
61119;BME280;51448;51.660;5.824;2024-03-02T08:16:46;100054.31;;;8.54;83.19
61119;BME280;51448;51.660;5.824;2024-03-02T08:19:13;100050.88;;;8.57;82.48
61119;BME280;51448;51.660;5.824;2024-03-02T08:21:42;100055.88;;;8.64;81.67
61119;BME280;51448;51.660;5.824;2024-03-02T08:24:11;100050.88;;;8.66;81.42
61119;BME280;51448;51.660;5.824;2024-03-02T08:26:38;100047.81;;;8.67;81.21
61119;BME280;51448;51.660;5.824;2024-03-02T08:29:06;100049.41;;;8.68;81.51
61119;BME280;51448;51.660;5.824;2024-03-02T08:31:33;100059.91;;;8.75;80.36
61119;BME280;51448;51.660;5.824;2024-03-02T08:34:04;100066.25;;;8.76;80.52
61119;BME280;51448;51.660;5.824;2024-03-02T08:36:32;100058.00;;;8.76;79.85
61119;BME280;51448;51.660;5.824;2024-03-02T08:38:59;100061.22;;;8.78;80.26
61119;BME280;51448;51.660;5.824;2024-03-02T08:41:27;100062.50;;;8.80;80.38
61119;BME280;51448;51.660;5.824;2024-03-02T08:43:55;100065.75;;;8.82;80.23
61119;BME280;51448;51.660;5.824;2024-03-02T08:46:22;100069.78;;;8.85;80.60
61119;BME280;51448;51.660;5.824;2024-03-02T08:48:50;100055.03;;;8.89;80.57
61119;BME280;51448;51.660;5.824;2024-03-02T08:51:18;100051.31;;;8.94;80.07
61119;BME280;51448;51.660;5.824;2024-03-02T08:53:45;100042.41;;;8.97;80.15
61119;BME280;51448;51.660;5.824;2024-03-02T08:56:13;100062.63;;;9.01;79.94
61119;BME280;51448;51.660;5.824;2024-03-02T08:58:40;100064.84;;;9.08;80.14
61119;BME280;51448;51.660;5.824;2024-03-02T09:01:08;100069.53;;;9.16;80.27
61119;BME280;51448;51.660;5.824;2024-03-02T09:03:37;100062.25;;;9.20;79.39
61119;BME280;51448;51.660;5.824;2024-03-02T09:06:05;100065.94;;;9.24;79.13
61119;BME280;51448;51.660;5.824;2024-03-02T09:08:33;100072.75;;;9.27;79.38
61119;BME280;51448;51.660;5.824;2024-03-02T09:11:03;100063.69;;;9.26;79.12
61119;BME280;51448;51.660;5.824;2024-03-02T09:13:31;100071.28;;;9.29;79.06
61119;BME280;51448;51.660;5.824;2024-03-02T09:15:59;100072.56;;;9.32;78.88
61119;BME280;51448;51.660;5.824;2024-03-02T09:18:27;100074.66;;;9.35;78.38
61119;BME280;51448;51.660;5.824;2024-03-02T09:20:55;100079.50;;;9.38;77.96
61119;BME280;51448;51.660;5.824;2024-03-02T09:23:22;100073.66;;;9.39;77.81
61119;BME280;51448;51.660;5.824;2024-03-02T09:25:50;100073.03;;;9.42;78.41
61119;BME280;51448;51.660;5.824;2024-03-02T09:28:17;100078.00;;;9.49;78.50
61119;BME280;51448;51.660;5.824;2024-03-02T09:30:45;100078.97;;;9.53;77.41
61119;BME280;51448;51.660;5.824;2024-03-02T09:33:13;100073.75;;;9.60;77.45
61119;BME280;51448;51.660;5.824;2024-03-02T09:35:44;100059.44;;;9.67;76.81
61119;BME280;51448;51.660;5.824;2024-03-02T09:38:11;100067.22;;;9.73;77.10
61119;BME280;51448;51.660;5.824;2024-03-02T09:40:41;100068.28;;;9.81;76.63
61119;BME280;51448;51.660;5.824;2024-03-02T09:43:09;100057.53;;;9.88;76.59
61119;BME280;51448;51.660;5.824;2024-03-02T09:45:37;100058.16;;;9.94;75.78
61119;BME280;51448;51.660;5.824;2024-03-02T09:48:06;100052.44;;;9.99;75.23
61119;BME280;51448;51.660;5.824;2024-03-02T09:50:34;100059.38;;;10.05;74.99
61119;BME280;51448;51.660;5.824;2024-03-02T09:53:01;100055.91;;;10.17;73.60
61119;BME280;51448;51.660;5.824;2024-03-02T09:55:29;100063.97;;;10.22;74.13
61119;BME280;51448;51.660;5.824;2024-03-02T09:57:57;100065.44;;;10.28;73.47
61119;BME280;51448;51.660;5.824;2024-03-02T10:00:24;100061.31;;;10.34;73.13
61119;BME280;51448;51.660;5.824;2024-03-02T10:02:52;100057.22;;;10.40;73.00
61119;BME280;51448;51.660;5.824;2024-03-02T10:05:24;100068.03;;;10.45;72.56
61119;BME280;51448;51.660;5.824;2024-03-02T10:08:01;100077.88;;;10.55;72.63
61119;BME280;51448;51.660;5.824;2024-03-02T10:10:37;100063.53;;;10.62;72.69
61119;BME280;51448;51.660;5.824;2024-03-02T10:13:10;100062.63;;;10.70;72.13
61119;BME280;51448;51.660;5.824;2024-03-02T10:15:40;100051.84;;;10.77;70.63
61119;BME280;51448;51.660;5.824;2024-03-02T10:18:12;100060.72;;;10.83;70.84
61119;BME280;51448;51.660;5.824;2024-03-02T10:20:40;100059.38;;;10.89;70.02
61119;BME280;51448;51.660;5.824;2024-03-02T10:23:16;100054.53;;;10.98;69.43
61119;BME280;51448;51.660;5.824;2024-03-02T10:25:44;100050.31;;;11.00;69.27
61119;BME280;51448;51.660;5.824;2024-03-02T10:28:24;100053.66;;;11.06;69.10
61119;BME280;51448;51.660;5.824;2024-03-02T10:30:52;100038.47;;;11.12;68.70
61119;BME280;51448;51.660;5.824;2024-03-02T10:33:20;100049.16;;;11.14;68.59
61119;BME280;51448;51.660;5.824;2024-03-02T10:35:51;100032.38;;;11.19;67.74
61119;BME280;51448;51.660;5.824;2024-03-02T10:38:19;100028.25;;;11.25;67.15
61119;BME280;51448;51.660;5.824;2024-03-02T10:40:48;100023.66;;;11.29;67.41
61119;BME280;51448;51.660;5.824;2024-03-02T10:43:17;100031.72;;;11.34;68.12
61119;BME280;51448;51.660;5.824;2024-03-02T10:45:49;100031.94;;;11.41;67.31
61119;BME280;51448;51.660;5.824;2024-03-02T10:48:18;100026.19;;;11.46;67.22
61119;BME280;51448;51.660;5.824;2024-03-02T10:50:46;100031.84;;;11.50;66.54
61119;BME280;51448;51.660;5.824;2024-03-02T10:53:13;100026.75;;;11.52;65.84
61119;BME280;51448;51.660;5.824;2024-03-02T10:55:41;100026.09;;;11.55;64.25
61119;BME280;51448;51.660;5.824;2024-03-02T10:58:12;100023.53;;;11.62;63.94
61119;BME280;51448;51.660;5.824;2024-03-02T11:00:40;100025.28;;;11.67;63.70
61119;BME280;51448;51.660;5.824;2024-03-02T11:03:12;100021.47;;;11.71;63.24
61119;BME280;51448;51.660;5.824;2024-03-02T11:05:43;100015.72;;;11.76;64.74
61119;BME280;51448;51.660;5.824;2024-03-02T11:08:13;100022.28;;;11.84;65.47
61119;BME280;51448;51.660;5.824;2024-03-02T11:11:04;100023.91;;;11.97;64.45
61119;BME280;51448;51.660;5.824;2024-03-02T11:13:34;100017.66;;;12.00;64.73
61119;BME280;51448;51.660;5.824;2024-03-02T11:16:12;100013.03;;;12.04;63.93
61119;BME280;51448;51.660;5.824;2024-03-02T11:18:49;100018.78;;;12.11;63.93
61119;BME280;51448;51.660;5.824;2024-03-02T11:21:27;100016.56;;;12.17;62.55
61119;BME280;51448;51.660;5.824;2024-03-02T11:23:56;100019.91;;;12.23;61.23
61119;BME280;51448;51.660;5.824;2024-03-02T11:26:23;100016.00;;;12.24;61.90
61119;BME280;51448;51.660;5.824;2024-03-02T11:28:51;100009.75;;;12.27;61.86
61119;BME280;51448;51.660;5.824;2024-03-02T11:31:19;100011.47;;;12.31;62.15
61119;BME280;51448;51.660;5.824;2024-03-02T11:33:47;100004.72;;;12.45;60.80
61119;BME280;51448;51.660;5.824;2024-03-02T11:36:15;100005.28;;;12.50;60.75
61119;BME280;51448;51.660;5.824;2024-03-02T11:38:43;100009.66;;;12.51;59.72
61119;BME280;51448;51.660;5.824;2024-03-02T11:41:13;100010.81;;;12.50;60.19
61119;BME280;51448;51.660;5.824;2024-03-02T11:43:41;100005.03;;;12.55;60.34
61119;BME280;51448;51.660;5.824;2024-03-02T11:46:11;100010.78;;;12.62;60.13
61119;BME280;51448;51.660;5.824;2024-03-02T11:48:40;99995.03;;;12.67;60.92
61119;BME280;51448;51.660;5.824;2024-03-02T11:51:08;99995.69;;;12.76;59.86
61119;BME280;51448;51.660;5.824;2024-03-02T11:53:38;99994.63;;;12.80;60.46
61119;BME280;51448;51.660;5.824;2024-03-02T11:56:09;99989.22;;;12.84;60.30
61119;BME280;51448;51.660;5.824;2024-03-02T11:58:39;99992.16;;;12.91;60.69
61119;BME280;51448;51.660;5.824;2024-03-02T12:01:10;99988.84;;;13.01;60.17
61119;BME280;51448;51.660;5.824;2024-03-02T12:03:38;99987.88;;;13.09;59.20
61119;BME280;51448;51.660;5.824;2024-03-02T12:06:06;99982.06;;;13.14;59.44
61119;BME280;51448;51.660;5.824;2024-03-02T12:08:34;99980.19;;;13.19;59.54
61119;BME280;51448;51.660;5.824;2024-03-02T12:11:03;99972.81;;;13.23;60.12
61119;BME280;51448;51.660;5.824;2024-03-02T12:13:31;99970.56;;;13.28;60.00
61119;BME280;51448;51.660;5.824;2024-03-02T12:16:00;99970.22;;;13.30;59.98
61119;BME280;51448;51.660;5.824;2024-03-02T12:18:27;99968.59;;;13.29;59.58
61119;BME280;51448;51.660;5.824;2024-03-02T12:20:55;99963.88;;;13.29;59.09
61119;BME280;51448;51.660;5.824;2024-03-02T12:23:26;99972.19;;;13.29;59.32
61119;BME280;51448;51.660;5.824;2024-03-02T12:25:56;99965.09;;;13.32;59.10
61119;BME280;51448;51.660;5.824;2024-03-02T12:28:23;99960.44;;;13.36;58.87
61119;BME280;51448;51.660;5.824;2024-03-02T12:30:51;99960.81;;;13.34;57.13
61119;BME280;51448;51.660;5.824;2024-03-02T12:33:19;99950.91;;;13.33;57.42
61119;BME280;51448;51.660;5.824;2024-03-02T12:35:48;99944.63;;;13.36;57.69
61119;BME280;51448;51.660;5.824;2024-03-02T12:38:16;99932.09;;;13.42;56.14
61119;BME280;51448;51.660;5.824;2024-03-02T12:40:44;99937.38;;;13.48;56.53
61119;BME280;51448;51.660;5.824;2024-03-02T12:43:12;99935.84;;;13.50;56.64
61119;BME280;51448;51.660;5.824;2024-03-02T12:45:39;99926.09;;;13.56;57.01
61119;BME280;51448;51.660;5.824;2024-03-02T12:48:07;99923.94;;;13.65;56.87
61119;BME280;51448;51.660;5.824;2024-03-02T12:50:35;99920.06;;;13.70;56.06
61119;BME280;51448;51.660;5.824;2024-03-02T12:53:03;99918.97;;;13.75;54.92
61119;BME280;51448;51.660;5.824;2024-03-02T12:55:31;99917.00;;;13.75;54.39
61119;BME280;51448;51.660;5.824;2024-03-02T12:57:58;99914.31;;;13.79;53.80
61119;BME280;51448;51.660;5.824;2024-03-02T13:00:27;99910.88;;;13.85;52.92
61119;BME280;51448;51.660;5.824;2024-03-02T13:02:56;99906.97;;;13.86;53.01
61119;BME280;51448;51.660;5.824;2024-03-02T13:05:32;99912.94;;;13.88;53.06
61119;BME280;51448;51.660;5.824;2024-03-02T13:08:00;99912.13;;;13.88;52.78
61119;BME280;51448;51.660;5.824;2024-03-02T13:10:31;99915.78;;;13.92;52.42
61119;BME280;51448;51.660;5.824;2024-03-02T13:13:00;99919.13;;;14.01;51.37
61119;BME280;51448;51.660;5.824;2024-03-02T13:15:28;99908.03;;;14.01;52.16